Terminal Aerodrome Forecast
Issued by NWS Blacksburg, VA

Current Version | Previous Version | Graphics & Text | Print | Product List | Glossary On
Versions: 1 2 3 4 5 6 7 8 9 10 11 12 13 14 15 16 17 18 19 20 21 22 23 24 25 26 27 28 29 30 31 32 33 34 35 36
500
FTUS41 KRNK 090520
TAFBLF
TAF
KBLF 090520Z 0906/1006 30011G21KT P6SM BKN020 OVC040
     FM090800 31011G22KT P6SM VCSH BKN020
     FM091500 29011G20KT P6SM -SHSN BKN040
     FM100100 29006KT P6SM SCT090=

USA.gov is the U.S. government's official web portal to all federal, state and local government web resources and services.